Kouwamaru — JG4745 — position and weather

sailwx.info

Track history (hours):
 
Tides and Currents Weather Stations Pressure Air Temp Water Temp Dewpoint Dewpoint Depression Visibility Wind Speed Wind Dir Waves Ship Positions

Kouwamaru

Last reported at 2017-Sep-21 23:02 UTC. Time now 2017-Sep-22 04:34 UTC.
Position N 34°39' E 135°26'.

Length 54 m.

Type: Ship. MMSI: 431100411.

Date/timePositionNaut miles runAvg speedWind from/ knotsBaromVisibWave heightAir tempDewpointWater temp
2017-Sep-21 23:02N 34°39' E 135°26'0 6.2
2017-Sep-21 23:00N 34°39' E 135°26'3 6.6
2017-Sep-21 22:30N 34°40' E 135°22'0 0.6
2017-Sep-21 21:57N 34°40' E 135°22'0 0.0
2017-Sep-21 21:21N 34°39' E 135°22'0 0.0
2017-Sep-21 20:51N 34°39' E 135°22'0 0.0
2017-Sep-21 20:27N 34°39' E 135°22'0 0.6
2017-Sep-21 20:00N 34°39' E 135°22'5 9.5
2017-Sep-21 19:28N 34°37' E 135°16'4 9.5
2017-Sep-21 19:00N 34°36' E 135°11'  
2017-Sep-18 13:12N 35°04' E 139°33'210.3
2017-Sep-18 13:00N 35°05' E 139°35'510.9
2017-Sep-18 12:30N 35°08' E 139°41'510.8
2017-Sep-18 12:00N 35°12' E 139°45'8 9.7
2017-Sep-18 11:12N 35°19' E 139°43'210.3
2017-Sep-18 11:00N 35°21' E 139°42'510.3
2017-Sep-18 10:30N 35°26' E 139°45'  
2017-Sep-13 00:52N 35°31' E 139°52'410.2
2017-Sep-13 00:30N 35°29' E 139°48'5 9.5
2017-Sep-13 00:00N 35°26' E 139°44'4 6.7
2017-Sep-12 23:23N 35°22' E 139°41'0 0.0
2017-Sep-12 22:59N 35°22' E 139°41'0 0.0
2017-Sep-12 22:14N 35°22' E 139°41'0 0.0
2017-Sep-12 21:59N 35°22' E 139°41'0 0.8
2017-Sep-12 21:29N 35°22' E 139°41'0 0.7
2017-Sep-12 20:58N 35°22' E 139°40'0 0.0
2017-Sep-12 20:22N 35°22' E 139°40'0 0.0
2017-Sep-12 19:55N 35°22' E 139°40'0 0.0
2017-Sep-12 19:19N 35°22' E 139°40'0 0.0
2017-Sep-12 18:49N 35°22' E 139°40'0 0.0
2017-Sep-12 18:28N 35°22' E 139°40'0 0.0
2017-Sep-12 17:55N 35°22' E 139°40'0 0.0
2017-Sep-12 17:07N 35°22' E 139°40'0 0.0
2017-Sep-12 16:55N 35°22' E 139°40'0 0.0
2017-Sep-12 16:28N 35°22' E 139°40'0 0.1
2017-Sep-12 15:52N 35°22' E 139°40'0 0.0
2017-Sep-12 15:28N 35°22' E 139°40'0 0.1
2017-Sep-12 14:52N 35°22' E 139°40'0 0.0
2017-Sep-12 14:28N 35°22' E 139°40'0 0.0
2017-Sep-12 13:58N 35°22' E 139°40'0 0.0
2017-Sep-12 13:28N 35°22' E 139°40'0 0.1
2017-Sep-12 12:40N 35°22' E 139°40'0 0.1
2017-Sep-12 12:19N 35°22' E 139°40'0 0.0
2017-Sep-12 11:58N 35°22' E 139°40'0 0.0
2017-Sep-12 11:28N 35°22' E 139°40'0 0.0
2017-Sep-12 10:46N 35°22' E 139°40'0 0.1
2017-Sep-12 10:16N 35°22' E 139°40'0 0.0
2017-Sep-12 09:58N 35°22' E 139°40'0 0.0
2017-Sep-12 09:28N 35°22' E 139°40'0 0.0
2017-Sep-12 08:52N 35°22' E 139°40'0 0.0
2017-Sep-12 08:28N 35°22' E 139°40'0 0.0
2017-Sep-12 07:58N 35°22' E 139°40'0 0.0
2017-Sep-12 07:28N 35°22' E 139°40'0 0.0
2017-Sep-12 07:00N 35°22' E 139°40'4 7.9
2017-Sep-12 06:29N 35°25' E 139°44'  
Track history (hours):
 
Tides and Currents Weather Stations Pressure Air Temp Water Temp Dewpoint Dewpoint Depression Visibility Wind Speed Wind Dir Waves Ship Positions

Kouwamaru

Last reported at 2017-Sep-21 23:02 UTC. Time now 2017-Sep-22 04:34 UTC.
Position N 34°39' E 135°26'.

Length 54 m.

Type: Ship. MMSI: 431100411.

Date/timePositionNaut miles runAvg speedWind from/ knotsBaromVisibWave heightAir tempDewpointWater temp
2017-Sep-21 23:02N 34°39' E 135°26'0 6.2
2017-Sep-21 23:00N 34°39' E 135°26'3 6.6
2017-Sep-21 22:30N 34°40' E 135°22'0 0.6
2017-Sep-21 21:57N 34°40' E 135°22'0 0.0
2017-Sep-21 21:21N 34°39' E 135°22'0 0.0
2017-Sep-21 20:51N 34°39' E 135°22'0 0.0
2017-Sep-21 20:27N 34°39' E 135°22'0 0.6
2017-Sep-21 20:00N 34°39' E 135°22'5 9.5
2017-Sep-21 19:28N 34°37' E 135°16'4 9.5
2017-Sep-21 19:00N 34°36' E 135°11'  
2017-Sep-18 13:12N 35°04' E 139°33'210.3
2017-Sep-18 13:00N 35°05' E 139°35'510.9
2017-Sep-18 12:30N 35°08' E 139°41'510.8
2017-Sep-18 12:00N 35°12' E 139°45'8 9.7
2017-Sep-18 11:12N 35°19' E 139°43'210.3
2017-Sep-18 11:00N 35°21' E 139°42'510.3
2017-Sep-18 10:30N 35°26' E 139°45'  
2017-Sep-13 00:52N 35°31' E 139°52'410.2
2017-Sep-13 00:30N 35°29' E 139°48'5 9.5
2017-Sep-13 00:00N 35°26' E 139°44'4 6.7
2017-Sep-12 23:23N 35°22' E 139°41'0 0.0
2017-Sep-12 22:59N 35°22' E 139°41'0 0.0
2017-Sep-12 22:14N 35°22' E 139°41'0 0.0
2017-Sep-12 21:59N 35°22' E 139°41'0 0.8
2017-Sep-12 21:29N 35°22' E 139°41'0 0.7
2017-Sep-12 20:58N 35°22' E 139°40'0 0.0
2017-Sep-12 20:22N 35°22' E 139°40'0 0.0
2017-Sep-12 19:55N 35°22' E 139°40'0 0.0
2017-Sep-12 19:19N 35°22' E 139°40'0 0.0
2017-Sep-12 18:49N 35°22' E 139°40'0 0.0
2017-Sep-12 18:28N 35°22' E 139°40'0 0.0
2017-Sep-12 17:55N 35°22' E 139°40'0 0.0
2017-Sep-12 17:07N 35°22' E 139°40'0 0.0
2017-Sep-12 16:55N 35°22' E 139°40'0 0.0
2017-Sep-12 16:28N 35°22' E 139°40'0 0.1
2017-Sep-12 15:52N 35°22' E 139°40'0 0.0
2017-Sep-12 15:28N 35°22' E 139°40'0 0.1
2017-Sep-12 14:52N 35°22' E 139°40'0 0.0
2017-Sep-12 14:28N 35°22' E 139°40'0 0.0
2017-Sep-12 13:58N 35°22' E 139°40'0 0.0
2017-Sep-12 13:28N 35°22' E 139°40'0 0.1
2017-Sep-12 12:40N 35°22' E 139°40'0 0.1
2017-Sep-12 12:19N 35°22' E 139°40'0 0.0
2017-Sep-12 11:58N 35°22' E 139°40'0 0.0
2017-Sep-12 11:28N 35°22' E 139°40'0 0.0
2017-Sep-12 10:46N 35°22' E 139°40'0 0.1
2017-Sep-12 10:16N 35°22' E 139°40'0 0.0
2017-Sep-12 09:58N 35°22' E 139°40'0 0.0
2017-Sep-12 09:28N 35°22' E 139°40'0 0.0
2017-Sep-12 08:52N 35°22' E 139°40'0 0.0
2017-Sep-12 08:28N 35°22' E 139°40'0 0.0
2017-Sep-12 07:58N 35°22' E 139°40'0 0.0
2017-Sep-12 07:28N 35°22' E 139°40'0 0.0
2017-Sep-12 07:00N 35°22' E 139°40'4 7.9
2017-Sep-12 06:29N 35°25' E 139°44'  

Dump ship's entire track history